sensor_id;sensor_type;location;lat;lon;timestamp;P1;durP1;ratioP1;P2;durP2;ratioP2
31596;SDS011;18201;50.978;7.034;2023-03-26T02:41:20;24.63;;;5.18;;
31596;SDS011;18201;50.978;7.034;2023-03-26T02:41:52;27.45;;;5.55;;
31596;SDS011;18201;50.978;7.034;2023-03-26T02:42:23;25.38;;;6.55;;
31596;SDS011;18201;50.978;7.034;2023-03-26T02:42:54;23.13;;;6.55;;
31596;SDS011;18201;50.978;7.034;2023-03-26T02:43:25;27.23;;;6.53;;
31596;SDS011;18201;50.978;7.034;2023-03-26T02:43:57;28.73;;;5.90;;
31596;SDS011;18201;50.978;7.034;2023-03-26T02:44:28;25.65;;;6.45;;
31596;SDS011;18201;50.978;7.034;2023-03-26T02:44:58;21.55;;;5.80;;
31596;SDS011;18201;50.978;7.034;2023-03-26T02:45:30;29.67;;;7.38;;
31596;SDS011;18201;50.978;7.034;2023-03-26T02:46:01;20.45;;;5.20;;
31596;SDS011;18201;50.978;7.034;2023-03-26T02:46:32;24.92;;;5.88;;
31596;SDS011;18201;50.978;7.034;2023-03-26T02:47:04;29.85;;;7.30;;
31596;SDS011;18201;50.978;7.034;2023-03-26T02:47:36;23.35;;;6.75;;
31596;SDS011;18201;50.978;7.034;2023-03-26T02:48:06;25.17;;;8.45;;
31596;SDS011;18201;50.978;7.034;2023-03-26T02:48:38;19.73;;;5.78;;
31596;SDS011;18201;50.978;7.034;2023-03-26T02:49:10;27.73;;;6.80;;
31596;SDS011;18201;50.978;7.034;2023-03-26T02:49:41;19.55;;;7.47;;
31596;SDS011;18201;50.978;7.034;2023-03-26T02:50:13;23.52;;;5.90;;
31596;SDS011;18201;50.978;7.034;2023-03-26T02:50:45;22.50;;;6.22;;
31596;SDS011;18201;50.978;7.034;2023-03-26T02:51:19;24.42;;;6.43;;
31596;SDS011;18201;50.978;7.034;2023-03-26T02:51:51;27.85;;;6.50;;
31596;SDS011;18201;50.978;7.034;2023-03-26T02:52:25;24.77;;;6.53;;
31596;SDS011;18201;50.978;7.034;2023-03-26T02:52:57;21.10;;;5.32;;
31596;SDS011;18201;50.978;7.034;2023-03-26T02:53:28;24.80;;;6.70;;
31596;SDS011;18201;50.978;7.034;2023-03-26T02:54:00;23.90;;;6.32;;
31596;SDS011;18201;50.978;7.034;2023-03-26T02:54:30;21.65;;;6.53;;
31596;SDS011;18201;50.978;7.034;2023-03-26T02:55:02;27.25;;;6.60;;
31596;SDS011;18201;50.978;7.034;2023-03-26T02:55:34;23.38;;;6.70;;
31596;SDS011;18201;50.978;7.034;2023-03-26T02:56:05;18.95;;;5.65;;
31596;SDS011;18201;50.978;7.034;2023-03-26T02:56:38;25.70;;;6.25;;
31596;SDS011;18201;50.978;7.034;2023-03-26T02:57:10;24.48;;;6.10;;
31596;SDS011;18201;50.978;7.034;2023-03-26T02:57:41;21.50;;;6.25;;
31596;SDS011;18201;50.978;7.034;2023-03-26T02:58:12;25.85;;;6.60;;
31596;SDS011;18201;50.978;7.034;2023-03-26T02:58:46;19.70;;;5.65;;
31596;SDS011;18201;50.978;7.034;2023-03-26T02:59:17;21.17;;;5.20;;
31596;SDS011;18201;50.978;7.034;2023-03-26T02:59:48;28.83;;;5.63;;
31596;SDS011;18201;50.978;7.034;2023-03-26T03:00:21;18.67;;;5.55;;
31596;SDS011;18201;50.978;7.034;2023-03-26T03:01:33;22.23;;;6.00;;
31596;SDS011;18201;50.978;7.034;2023-03-26T03:02:04;25.23;;;5.88;;
31596;SDS011;18201;50.978;7.034;2023-03-26T03:02:35;24.17;;;5.28;;
31596;SDS011;18201;50.978;7.034;2023-03-26T03:03:07;21.83;;;6.03;;
31596;SDS011;18201;50.978;7.034;2023-03-26T03:03:39;24.02;;;6.05;;
31596;SDS011;18201;50.978;7.034;2023-03-26T03:04:10;22.20;;;6.88;;
31596;SDS011;18201;50.978;7.034;2023-03-26T03:04:42;32.25;;;7.40;;
31596;SDS011;18201;50.978;7.034;2023-03-26T03:05:14;26.13;;;6.25;;
31596;SDS011;18201;50.978;7.034;2023-03-26T03:05:45;18.58;;;4.93;;
31596;SDS011;18201;50.978;7.034;2023-03-26T03:06:15;28.13;;;6.03;;
31596;SDS011;18201;50.978;7.034;2023-03-26T03:06:48;19.60;;;5.63;;
31596;SDS011;18201;50.978;7.034;2023-03-26T03:07:21;27.63;;;7.07;;
31596;SDS011;18201;50.978;7.034;2023-03-26T03:07:54;25.02;;;6.25;;
31596;SDS011;18201;50.978;7.034;2023-03-26T03:08:27;26.60;;;4.93;;
31596;SDS011;18201;50.978;7.034;2023-03-26T03:08:58;24.42;;;5.72;;
31596;SDS011;18201;50.978;7.034;2023-03-26T03:09:31;21.83;;;5.60;;
31596;SDS011;18201;50.978;7.034;2023-03-26T03:10:04;25.60;;;5.78;;
31596;SDS011;18201;50.978;7.034;2023-03-26T03:10:38;24.70;;;5.43;;
31596;SDS011;18201;50.978;7.034;2023-03-26T03:11:11;17.10;;;5.75;;
31596;SDS011;18201;50.978;7.034;2023-03-26T03:11:46;20.55;;;5.03;;
31596;SDS011;18201;50.978;7.034;2023-03-26T03:12:17;25.95;;;6.55;;
31596;SDS011;18201;50.978;7.034;2023-03-26T03:12:47;25.83;;;5.75;;
31596;SDS011;18201;50.978;7.034;2023-03-26T03:13:19;28.45;;;6.45;;
31596;SDS011;18201;50.978;7.034;2023-03-26T03:13:50;21.48;;;5.65;;
31596;SDS011;18201;50.978;7.034;2023-03-26T03:14:22;26.23;;;5.50;;
31596;SDS011;18201;50.978;7.034;2023-03-26T03:14:54;28.17;;;6.45;;
31596;SDS011;18201;50.978;7.034;2023-03-26T03:15:25;22.58;;;6.18;;
31596;SDS011;18201;50.978;7.034;2023-03-26T03:15:56;24.10;;;6.35;;
31596;SDS011;18201;50.978;7.034;2023-03-26T03:16:28;20.38;;;5.80;;
31596;SDS011;18201;50.978;7.034;2023-03-26T03:17:00;28.10;;;6.57;;
31596;SDS011;18201;50.978;7.034;2023-03-26T03:17:30;28.55;;;7.07;;
31596;SDS011;18201;50.978;7.034;2023-03-26T03:18:02;27.92;;;7.22;;
31596;SDS011;18201;50.978;7.034;2023-03-26T03:18:33;29.48;;;7.40;;
31596;SDS011;18201;50.978;7.034;2023-03-26T03:19:04;25.67;;;6.35;;
31596;SDS011;18201;50.978;7.034;2023-03-26T03:19:36;27.08;;;6.47;;
31596;SDS011;18201;50.978;7.034;2023-03-26T03:20:09;24.35;;;6.57;;
31596;SDS011;18201;50.978;7.034;2023-03-26T03:20:41;23.35;;;7.50;;
31596;SDS011;18201;50.978;7.034;2023-03-26T03:21:13;33.05;;;6.88;;
31596;SDS011;18201;50.978;7.034;2023-03-26T03:21:44;26.88;;;6.85;;
31596;SDS011;18201;50.978;7.034;2023-03-26T03:22:15;31.73;;;7.63;;
31596;SDS011;18201;50.978;7.034;2023-03-26T03:22:47;23.70;;;6.53;;
31596;SDS011;18201;50.978;7.034;2023-03-26T03:23:18;24.92;;;6.47;;
31596;SDS011;18201;50.978;7.034;2023-03-26T03:23:49;28.38;;;6.32;;
31596;SDS011;18201;50.978;7.034;2023-03-26T03:24:21;27.70;;;6.63;;
31596;SDS011;18201;50.978;7.034;2023-03-26T03:24:52;27.35;;;7.15;;
31596;SDS011;18201;50.978;7.034;2023-03-26T03:25:26;27.85;;;7.45;;
31596;SDS011;18201;50.978;7.034;2023-03-26T03:25:58;21.05;;;6.18;;
31596;SDS011;18201;50.978;7.034;2023-03-26T03:26:29;18.08;;;5.60;;
31596;SDS011;18201;50.978;7.034;2023-03-26T03:27:02;24.88;;;5.90;;
31596;SDS011;18201;50.978;7.034;2023-03-26T03:27:33;25.00;;;6.38;;
31596;SDS011;18201;50.978;7.034;2023-03-26T03:28:04;23.00;;;6.30;;
31596;SDS011;18201;50.978;7.034;2023-03-26T03:28:35;20.67;;;6.10;;
31596;SDS011;18201;50.978;7.034;2023-03-26T03:29:07;22.95;;;6.68;;
31596;SDS011;18201;50.978;7.034;2023-03-26T03:29:38;23.67;;;6.28;;
31596;SDS011;18201;50.978;7.034;2023-03-26T03:30:11;17.15;;;5.60;;
31596;SDS011;18201;50.978;7.034;2023-03-26T03:30:42;19.23;;;5.72;;
31596;SDS011;18201;50.978;7.034;2023-03-26T03:31:13;20.10;;;5.32;;
31596;SDS011;18201;50.978;7.034;2023-03-26T03:31:44;23.58;;;6.45;;
31596;SDS011;18201;50.978;7.034;2023-03-26T03:32:16;24.25;;;6.78;;
31596;SDS011;18201;50.978;7.034;2023-03-26T03:32:47;19.85;;;5.80;;
31596;SDS011;18201;50.978;7.034;2023-03-26T03:33:19;25.38;;;5.20;;
31596;SDS011;18201;50.978;7.034;2023-03-26T03:33:50;23.15;;;6.40;;
31596;SDS011;18201;50.978;7.034;2023-03-26T03:34:21;24.30;;;6.07;;
31596;SDS011;18201;50.978;7.034;2023-03-26T03:34:54;20.52;;;6.05;;
31596;SDS011;18201;50.978;7.034;2023-03-26T03:35:25;18.92;;;5.90;;
31596;SDS011;18201;50.978;7.034;2023-03-26T03:35:56;21.63;;;5.65;;
31596;SDS011;18201;50.978;7.034;2023-03-26T03:36:29;27.05;;;6.95;;
31596;SDS011;18201;50.978;7.034;2023-03-26T03:37:02;22.55;;;5.65;;
31596;SDS011;18201;50.978;7.034;2023-03-26T03:37:33;23.92;;;6.38;;
31596;SDS011;18201;50.978;7.034;2023-03-26T03:38:04;22.02;;;5.55;;
31596;SDS011;18201;50.978;7.034;2023-03-26T03:38:36;17.02;;;5.25;;
31596;SDS011;18201;50.978;7.034;2023-03-26T03:39:07;27.88;;;6.22;;
31596;SDS011;18201;50.978;7.034;2023-03-26T03:39:37;23.08;;;5.50;;
31596;SDS011;18201;50.978;7.034;2023-03-26T03:40:09;20.20;;;6.00;;
31596;SDS011;18201;50.978;7.034;2023-03-26T03:40:41;20.35;;;5.75;;
31596;SDS011;18201;50.978;7.034;2023-03-26T03:41:12;16.15;;;4.07;;
31596;SDS011;18201;50.978;7.034;2023-03-26T03:41:43;23.40;;;5.85;;
31596;SDS011;18201;50.978;7.034;2023-03-26T03:42:16;21.17;;;4.70;;
31596;SDS011;18201;50.978;7.034;2023-03-26T03:42:47;18.73;;;5.03;;
31596;SDS011;18201;50.978;7.034;2023-03-26T03:43:18;18.52;;;4.90;;
31596;SDS011;18201;50.978;7.034;2023-03-26T03:43:50;19.98;;;5.53;;
31596;SDS011;18201;50.978;7.034;2023-03-26T03:44:21;19.85;;;4.93;;
31596;SDS011;18201;50.978;7.034;2023-03-26T03:44:52;22.88;;;5.75;;
31596;SDS011;18201;50.978;7.034;2023-03-26T03:45:23;22.65;;;5.13;;
31596;SDS011;18201;50.978;7.034;2023-03-26T03:45:54;21.85;;;4.82;;
31596;SDS011;18201;50.978;7.034;2023-03-26T03:46:25;21.65;;;5.70;;
31596;SDS011;18201;50.978;7.034;2023-03-26T03:46:57;24.17;;;5.80;;
31596;SDS011;18201;50.978;7.034;2023-03-26T03:47:28;21.92;;;6.07;;
31596;SDS011;18201;50.978;7.034;2023-03-26T03:47:59;17.20;;;4.70;;
31596;SDS011;18201;50.978;7.034;2023-03-26T03:48:30;20.67;;;5.13;;
31596;SDS011;18201;50.978;7.034;2023-03-26T03:49:02;17.20;;;4.72;;
31596;SDS011;18201;50.978;7.034;2023-03-26T03:49:33;16.88;;;5.68;;
31596;SDS011;18201;50.978;7.034;2023-03-26T03:50:05;20.48;;;4.75;;
31596;SDS011;18201;50.978;7.034;2023-03-26T03:50:38;20.13;;;5.82;;
31596;SDS011;18201;50.978;7.034;2023-03-26T03:51:08;17.25;;;4.55;;
31596;SDS011;18201;50.978;7.034;2023-03-26T03:51:40;23.05;;;5.30;;
31596;SDS011;18201;50.978;7.034;2023-03-26T03:52:11;22.88;;;5.82;;
31596;SDS011;18201;50.978;7.034;2023-03-26T03:52:42;18.92;;;5.75;;
31596;SDS011;18201;50.978;7.034;2023-03-26T03:53:14;23.40;;;6.20;;
31596;SDS011;18201;50.978;7.034;2023-03-26T03:53:47;17.98;;;5.88;;
31596;SDS011;18201;50.978;7.034;2023-03-26T03:54:18;16.45;;;4.95;;
31596;SDS011;18201;50.978;7.034;2023-03-26T03:54:50;19.83;;;5.85;;
31596;SDS011;18201;50.978;7.034;2023-03-26T03:55:21;16.48;;;5.45;;
31596;SDS011;18201;50.978;7.034;2023-03-26T03:55:53;23.88;;;5.30;;
31596;SDS011;18201;50.978;7.034;2023-03-26T03:56:25;21.80;;;5.80;;
31596;SDS011;18201;50.978;7.034;2023-03-26T03:56:56;19.90;;;5.25;;
31596;SDS011;18201;50.978;7.034;2023-03-26T03:57:28;20.42;;;5.07;;
31596;SDS011;18201;50.978;7.034;2023-03-26T03:58:02;27.42;;;5.47;;
31596;SDS011;18201;50.978;7.034;2023-03-26T03:58:35;14.32;;;4.57;;
31596;SDS011;18201;50.978;7.034;2023-03-26T03:59:06;17.20;;;4.53;;
31596;SDS011;18201;50.978;7.034;2023-03-26T03:59:39;20.05;;;5.85;;
31596;SDS011;18201;50.978;7.034;2023-03-26T04:00:10;23.88;;;5.72;;
31596;SDS011;18201;50.978;7.034;2023-03-26T04:00:43;25.80;;;5.85;;
31596;SDS011;18201;50.978;7.034;2023-03-26T04:01:15;20.20;;;5.47;;
31596;SDS011;18201;50.978;7.034;2023-03-26T04:01:47;13.25;;;4.78;;
31596;SDS011;18201;50.978;7.034;2023-03-26T04:02:19;18.05;;;4.72;;
31596;SDS011;18201;50.978;7.034;2023-03-26T04:02:55;14.70;;;4.53;;
31596;SDS011;18201;50.978;7.034;2023-03-26T04:03:27;16.10;;;5.22;;
31596;SDS011;18201;50.978;7.034;2023-03-26T04:03:58;17.75;;;4.20;;
31596;SDS011;18201;50.978;7.034;2023-03-26T04:04:29;19.92;;;4.93;;
31596;SDS011;18201;50.978;7.034;2023-03-26T04:05:01;15.75;;;5.30;;
31596;SDS011;18201;50.978;7.034;2023-03-26T04:05:35;19.10;;;5.05;;
31596;SDS011;18201;50.978;7.034;2023-03-26T04:06:06;25.38;;;5.72;;
31596;SDS011;18201;50.978;7.034;2023-03-26T04:06:40;18.00;;;4.30;;
31596;SDS011;18201;50.978;7.034;2023-03-26T04:07:10;20.67;;;5.53;;
31596;SDS011;18201;50.978;7.034;2023-03-26T04:07:42;20.80;;;5.32;;
31596;SDS011;18201;50.978;7.034;2023-03-26T04:08:14;21.50;;;5.28;;
31596;SDS011;18201;50.978;7.034;2023-03-26T04:08:45;25.05;;;5.88;;
31596;SDS011;18201;50.978;7.034;2023-03-26T04:09:16;14.45;;;5.28;;
31596;SDS011;18201;50.978;7.034;2023-03-26T04:09:48;22.80;;;5.97;;
31596;SDS011;18201;50.978;7.034;2023-03-26T04:10:19;19.73;;;5.22;;
31596;SDS011;18201;50.978;7.034;2023-03-26T04:10:50;21.25;;;5.95;;
31596;SDS011;18201;50.978;7.034;2023-03-26T04:11:23;19.40;;;5.72;;
31596;SDS011;18201;50.978;7.034;2023-03-26T04:11:54;16.75;;;4.63;;
31596;SDS011;18201;50.978;7.034;2023-03-26T04:12:25;18.70;;;4.28;;
31596;SDS011;18201;50.978;7.034;2023-03-26T04:12:59;20.33;;;5.57;;
31596;SDS011;18201;50.978;7.034;2023-03-26T04:13:30;21.27;;;5.07;;
31596;SDS011;18201;50.978;7.034;2023-03-26T04:14:01;22.00;;;6.05;;
31596;SDS011;18201;50.978;7.034;2023-03-26T04:14:32;18.45;;;5.10;;
31596;SDS011;18201;50.978;7.034;2023-03-26T04:15:04;20.08;;;5.32;;
31596;SDS011;18201;50.978;7.034;2023-03-26T04:15:35;22.17;;;4.75;;
31596;SDS011;18201;50.978;7.034;2023-03-26T04:16:07;17.15;;;4.97;;
31596;SDS011;18201;50.978;7.034;2023-03-26T04:16:38;19.60;;;5.43;;
31596;SDS011;18201;50.978;7.034;2023-03-26T04:17:09;20.38;;;4.82;;
31596;SDS011;18201;50.978;7.034;2023-03-26T04:17:42;19.25;;;4.68;;
31596;SDS011;18201;50.978;7.034;2023-03-26T04:18:13;20.02;;;4.93;;
31596;SDS011;18201;50.978;7.034;2023-03-26T04:18:44;20.30;;;4.95;;
31596;SDS011;18201;50.978;7.034;2023-03-26T04:19:16;17.60;;;4.28;;
31596;SDS011;18201;50.978;7.034;2023-03-26T04:19:47;17.92;;;4.55;;
31596;SDS011;18201;50.978;7.034;2023-03-26T04:20:19;18.70;;;5.50;;
31596;SDS011;18201;50.978;7.034;2023-03-26T04:20:51;21.25;;;5.15;;
31596;SDS011;18201;50.978;7.034;2023-03-26T04:21:24;20.92;;;4.80;;
31596;SDS011;18201;50.978;7.034;2023-03-26T04:21:55;19.02;;;4.93;;
31596;SDS011;18201;50.978;7.034;2023-03-26T04:22:31;20.20;;;4.85;;
31596;SDS011;18201;50.978;7.034;2023-03-26T04:23:07;20.45;;;5.25;;
31596;SDS011;18201;50.978;7.034;2023-03-26T04:23:43;19.10;;;4.95;;
31596;SDS011;18201;50.978;7.034;2023-03-26T04:24:14;21.27;;;5.75;;
31596;SDS011;18201;50.978;7.034;2023-03-26T04:24:46;19.98;;;5.68;;
31596;SDS011;18201;50.978;7.034;2023-03-26T04:25:18;17.17;;;4.85;;
31596;SDS011;18201;50.978;7.034;2023-03-26T04:25:51;21.77;;;6.03;;
31596;SDS011;18201;50.978;7.034;2023-03-26T04:26:24;14.27;;;4.18;;
31596;SDS011;18201;50.978;7.034;2023-03-26T04:26:55;17.73;;;4.50;;
31596;SDS011;18201;50.978;7.034;2023-03-26T04:27:28;25.40;;;5.63;;
31596;SDS011;18201;50.978;7.034;2023-03-26T04:28:04;15.50;;;4.60;;
31596;SDS011;18201;50.978;7.034;2023-03-26T04:28:40;19.52;;;4.45;;
31596;SDS011;18201;50.978;7.034;2023-03-26T04:29:15;21.23;;;4.82;;
31596;SDS011;18201;50.978;7.034;2023-03-26T04:29:51;19.80;;;4.63;;
31596;SDS011;18201;50.978;7.034;2023-03-26T04:30:21;21.23;;;5.35;;
31596;SDS011;18201;50.978;7.034;2023-03-26T04:30:53;17.92;;;4.50;;
31596;SDS011;18201;50.978;7.034;2023-03-26T04:31:29;23.05;;;5.88;;
31596;SDS011;18201;50.978;7.034;2023-03-26T04:32:00;19.60;;;5.57;;
31596;SDS011;18201;50.978;7.034;2023-03-26T04:32:35;18.25;;;4.82;;
31596;SDS011;18201;50.978;7.034;2023-03-26T04:33:09;21.05;;;5.57;;
31596;SDS011;18201;50.978;7.034;2023-03-26T04:33:44;19.38;;;4.65;;
31596;SDS011;18201;50.978;7.034;2023-03-26T04:34:18;23.42;;;4.85;;
31596;SDS011;18201;50.978;7.034;2023-03-26T04:34:53;16.77;;;4.97;;
31596;SDS011;18201;50.978;7.034;2023-03-26T04:35:23;22.27;;;5.20;;
31596;SDS011;18201;50.978;7.034;2023-03-26T04:35:54;19.67;;;4.32;;
31596;SDS011;18201;50.978;7.034;2023-03-26T04:36:31;15.32;;;5.10;;
31596;SDS011;18201;50.978;7.034;2023-03-26T04:37:03;14.85;;;5.07;;
31596;SDS011;18201;50.978;7.034;2023-03-26T04:37:35;19.75;;;4.57;;
31596;SDS011;18201;50.978;7.034;2023-03-26T04:38:08;27.77;;;4.80;;
31596;SDS011;18201;50.978;7.034;2023-03-26T04:38:42;18.90;;;4.50;;
31596;SDS011;18201;50.978;7.034;2023-03-26T04:39:14;22.95;;;4.97;;
31596;SDS011;18201;50.978;7.034;2023-03-26T04:39:45;16.00;;;3.67;;
31596;SDS011;18201;50.978;7.034;2023-03-26T04:40:17;14.85;;;4.45;;
31596;SDS011;18201;50.978;7.034;2023-03-26T04:40:50;18.10;;;5.30;;
31596;SDS011;18201;50.978;7.034;2023-03-26T04:41:22;20.92;;;5.43;;
31596;SDS011;18201;50.978;7.034;2023-03-26T04:41:55;20.40;;;5.53;;
31596;SDS011;18201;50.978;7.034;2023-03-26T04:42:27;25.30;;;5.35;;
31596;SDS011;18201;50.978;7.034;2023-03-26T04:42:58;18.60;;;4.38;;
31596;SDS011;18201;50.978;7.034;2023-03-26T04:43:30;14.85;;;4.88;;
31596;SDS011;18201;50.978;7.034;2023-03-26T04:44:04;21.83;;;4.53;;
31596;SDS011;18201;50.978;7.034;2023-03-26T04:44:35;15.65;;;4.40;;
31596;SDS011;18201;50.978;7.034;2023-03-26T04:45:10;24.63;;;4.68;;
31596;SDS011;18201;50.978;7.034;2023-03-26T04:45:41;23.33;;;5.03;;
31596;SDS011;18201;50.978;7.034;2023-03-26T04:46:14;19.92;;;5.32;;
31596;SDS011;18201;50.978;7.034;2023-03-26T04:46:47;17.75;;;5.22;;
31596;SDS011;18201;50.978;7.034;2023-03-26T04:47:18;25.55;;;5.47;;
31596;SDS011;18201;50.978;7.034;2023-03-26T04:47:50;25.20;;;6.00;;
31596;SDS011;18201;50.978;7.034;2023-03-26T04:48:21;23.65;;;6.40;;
31596;SDS011;18201;50.978;7.034;2023-03-26T04:48:52;21.45;;;6.05;;
31596;SDS011;18201;50.978;7.034;2023-03-26T04:49:24;18.33;;;6.30;;
31596;SDS011;18201;50.978;7.034;2023-03-26T04:49:56;18.08;;;5.22;;
31596;SDS011;18201;50.978;7.034;2023-03-26T04:50:27;21.98;;;5.63;;
31596;SDS011;18201;50.978;7.034;2023-03-26T04:50:59;21.67;;;5.70;;
31596;SDS011;18201;50.978;7.034;2023-03-26T04:51:32;20.55;;;5.55;;
31596;SDS011;18201;50.978;7.034;2023-03-26T04:52:07;17.55;;;5.35;;
31596;SDS011;18201;50.978;7.034;2023-03-26T04:52:40;23.77;;;5.15;;
31596;SDS011;18201;50.978;7.034;2023-03-26T04:53:13;21.23;;;5.28;;
31596;SDS011;18201;50.978;7.034;2023-03-26T04:53:48;18.17;;;4.93;;
31596;SDS011;18201;50.978;7.034;2023-03-26T04:54:22;21.33;;;4.88;;
31596;SDS011;18201;50.978;7.034;2023-03-26T04:54:53;14.82;;;5.07;;
31596;SDS011;18201;50.978;7.034;2023-03-26T04:55:26;23.08;;;5.78;;
31596;SDS011;18201;50.978;7.034;2023-03-26T04:56:02;21.35;;;5.97;;
31596;SDS011;18201;50.978;7.034;2023-03-26T04:56:39;18.90;;;4.80;;
31596;SDS011;18201;50.978;7.034;2023-03-26T04:57:14;23.33;;;5.75;;
31596;SDS011;18201;50.978;7.034;2023-03-26T04:57:52;16.38;;;5.85;;
31596;SDS011;18201;50.978;7.034;2023-03-26T04:58:25;20.50;;;5.18;;
31596;SDS011;18201;50.978;7.034;2023-03-26T04:59:04;15.95;;;4.57;;
31596;SDS011;18201;50.978;7.034;2023-03-26T04:59:37;19.73;;;5.65;;
31596;SDS011;18201;50.978;7.034;2023-03-26T05:00:11;22.50;;;4.18;;
31596;SDS011;18201;50.978;7.034;2023-03-26T05:00:45;22.13;;;5.20;;
31596;SDS011;18201;50.978;7.034;2023-03-26T05:01:16;20.15;;;5.07;;
31596;SDS011;18201;50.978;7.034;2023-03-26T05:01:48;21.08;;;5.00;;
31596;SDS011;18201;50.978;7.034;2023-03-26T05:02:19;20.23;;;5.20;;
31596;SDS011;18201;50.978;7.034;2023-03-26T05:02:52;24.08;;;4.90;;
31596;SDS011;18201;50.978;7.034;2023-03-26T05:03:25;17.33;;;4.20;;
31596;SDS011;18201;50.978;7.034;2023-03-26T05:04:00;21.33;;;5.00;;
31596;SDS011;18201;50.978;7.034;2023-03-26T05:04:32;25.13;;;5.38;;
31596;SDS011;18201;50.978;7.034;2023-03-26T05:05:04;21.25;;;5.75;;
31596;SDS011;18201;50.978;7.034;2023-03-26T05:05:35;17.17;;;4.55;;
31596;SDS011;18201;50.978;7.034;2023-03-26T05:06:08;19.48;;;5.10;;
31596;SDS011;18201;50.978;7.034;2023-03-26T05:06:40;19.63;;;5.47;;
31596;SDS011;18201;50.978;7.034;2023-03-26T05:07:15;17.48;;;5.38;;
31596;SDS011;18201;50.978;7.034;2023-03-26T05:07:49;19.40;;;4.88;;
31596;SDS011;18201;50.978;7.034;2023-03-26T05:08:20;19.58;;;4.53;;
31596;SDS011;18201;50.978;7.034;2023-03-26T05:08:50;15.75;;;5.05;;
31596;SDS011;18201;50.978;7.034;2023-03-26T05:09:22;15.60;;;4.38;;
31596;SDS011;18201;50.978;7.034;2023-03-26T05:09:53;17.90;;;5.07;;
31596;SDS011;18201;50.978;7.034;2023-03-26T05:10:26;15.35;;;4.93;;
31596;SDS011;18201;50.978;7.034;2023-03-26T05:10:58;20.02;;;4.72;;
31596;SDS011;18201;50.978;7.034;2023-03-26T05:11:29;15.18;;;4.43;;
31596;SDS011;18201;50.978;7.034;2023-03-26T05:12:00;13.48;;;4.25;;
31596;SDS011;18201;50.978;7.034;2023-03-26T05:12:32;15.65;;;4.30;;
31596;SDS011;18201;50.978;7.034;2023-03-26T05:13:03;18.15;;;4.65;;
31596;SDS011;18201;50.978;7.034;2023-03-26T05:13:34;20.33;;;4.50;;
31596;SDS011;18201;50.978;7.034;2023-03-26T05:14:07;13.70;;;5.22;;
31596;SDS011;18201;50.978;7.034;2023-03-26T05:14:38;24.33;;;5.32;;
31596;SDS011;18201;50.978;7.034;2023-03-26T05:15:09;20.52;;;5.15;;
31596;SDS011;18201;50.978;7.034;2023-03-26T05:15:42;18.25;;;4.38;;
31596;SDS011;18201;50.978;7.034;2023-03-26T05:16:13;13.10;;;4.53;;
31596;SDS011;18201;50.978;7.034;2023-03-26T05:16:44;14.43;;;3.72;;
31596;SDS011;18201;50.978;7.034;2023-03-26T05:17:18;19.95;;;4.43;;
31596;SDS011;18201;50.978;7.034;2023-03-26T05:17:50;19.20;;;5.30;;
31596;SDS011;18201;50.978;7.034;2023-03-26T05:18:21;17.42;;;4.60;;
31596;SDS011;18201;50.978;7.034;2023-03-26T05:18:53;17.35;;;4.88;;
31596;SDS011;18201;50.978;7.034;2023-03-26T05:19:24;24.50;;;4.78;;
31596;SDS011;18201;50.978;7.034;2023-03-26T05:19:55;16.77;;;3.85;;
31596;SDS011;18201;50.978;7.034;2023-03-26T05:20:28;21.73;;;4.45;;
31596;SDS011;18201;50.978;7.034;2023-03-26T05:21:00;24.40;;;6.05;;
31596;SDS011;18201;50.978;7.034;2023-03-26T05:21:31;22.05;;;4.53;;
31596;SDS011;18201;50.978;7.034;2023-03-26T05:22:03;16.40;;;4.97;;
31596;SDS011;18201;50.978;7.034;2023-03-26T05:22:33;20.52;;;5.07;;
31596;SDS011;18201;50.978;7.034;2023-03-26T05:23:04;16.80;;;4.90;;
31596;SDS011;18201;50.978;7.034;2023-03-26T05:23:37;13.65;;;4.05;;
31596;SDS011;18201;50.978;7.034;2023-03-26T05:24:07;19.20;;;4.22;;
31596;SDS011;18201;50.978;7.034;2023-03-26T05:24:38;14.38;;;3.97;;
31596;SDS011;18201;50.978;7.034;2023-03-26T05:25:10;19.23;;;4.63;;
31596;SDS011;18201;50.978;7.034;2023-03-26T05:25:41;18.73;;;5.05;;
31596;SDS011;18201;50.978;7.034;2023-03-26T05:26:12;11.02;;;3.97;;
31596;SDS011;18201;50.978;7.034;2023-03-26T05:26:44;15.93;;;4.05;;
31596;SDS011;18201;50.978;7.034;2023-03-26T05:27:15;15.98;;;5.18;;
31596;SDS011;18201;50.978;7.034;2023-03-26T05:27:49;20.92;;;5.30;;
31596;SDS011;18201;50.978;7.034;2023-03-26T05:28:19;18.08;;;4.95;;
31596;SDS011;18201;50.978;7.034;2023-03-26T05:28:53;15.93;;;4.60;;
31596;SDS011;18201;50.978;7.034;2023-03-26T05:29:26;22.77;;;5.30;;
31596;SDS011;18201;50.978;7.034;2023-03-26T05:29:59;18.25;;;4.47;;
31596;SDS011;18201;50.978;7.034;2023-03-26T05:30:31;19.23;;;4.80;;
31596;SDS011;18201;50.978;7.034;2023-03-26T05:31:02;16.40;;;4.55;;
31596;SDS011;18201;50.978;7.034;2023-03-26T05:31:33;15.80;;;4.25;;
31596;SDS011;18201;50.978;7.034;2023-03-26T05:32:05;16.85;;;4.78;;
31596;SDS011;18201;50.978;7.034;2023-03-26T05:32:36;24.05;;;4.90;;
31596;SDS011;18201;50.978;7.034;2023-03-26T05:33:07;15.93;;;4.82;;
31596;SDS011;18201;50.978;7.034;2023-03-26T05:33:39;18.05;;;4.68;;
31596;SDS011;18201;50.978;7.034;2023-03-26T05:34:10;20.92;;;4.88;;
31596;SDS011;18201;50.978;7.034;2023-03-26T05:34:40;20.55;;;4.50;;
31596;SDS011;18201;50.978;7.034;2023-03-26T05:35:12;22.02;;;5.30;;
31596;SDS011;18201;50.978;7.034;2023-03-26T05:35:45;22.02;;;5.50;;
31596;SDS011;18201;50.978;7.034;2023-03-26T05:36:18;15.38;;;4.22;;
31596;SDS011;18201;50.978;7.034;2023-03-26T05:36:50;18.10;;;4.68;;
31596;SDS011;18201;50.978;7.034;2023-03-26T05:37:22;19.40;;;4.90;;
31596;SDS011;18201;50.978;7.034;2023-03-26T05:37:55;16.60;;;4.30;;
31596;SDS011;18201;50.978;7.034;2023-03-26T05:38:27;22.30;;;5.40;;
31596;SDS011;18201;50.978;7.034;2023-03-26T05:38:58;16.48;;;4.57;;
31596;SDS011;18201;50.978;7.034;2023-03-26T05:39:29;20.88;;;4.63;;
31596;SDS011;18201;50.978;7.034;2023-03-26T05:40:01;21.55;;;4.97;;
31596;SDS011;18201;50.978;7.034;2023-03-26T05:40:33;15.82;;;4.15;;
31596;SDS011;18201;50.978;7.034;2023-03-26T05:41:04;20.77;;;5.03;;
31596;SDS011;18201;50.978;7.034;2023-03-26T05:41:38;15.68;;;4.90;;
31596;SDS011;18201;50.978;7.034;2023-03-26T05:42:09;23.77;;;4.65;;
31596;SDS011;18201;50.978;7.034;2023-03-26T05:42:40;21.90;;;5.40;;
31596;SDS011;18201;50.978;7.034;2023-03-26T05:43:12;15.93;;;4.30;;
31596;SDS011;18201;50.978;7.034;2023-03-26T05:43:43;21.25;;;5.38;;
31596;SDS011;18201;50.978;7.034;2023-03-26T05:44:14;18.38;;;4.40;;
31596;SDS011;18201;50.978;7.034;2023-03-26T05:44:47;22.77;;;5.13;;
31596;SDS011;18201;50.978;7.034;2023-03-26T05:45:18;19.55;;;5.35;;
31596;SDS011;18201;50.978;7.034;2023-03-26T05:45:51;20.77;;;4.85;;
31596;SDS011;18201;50.978;7.034;2023-03-26T05:46:21;15.35;;;4.53;;
31596;SDS011;18201;50.978;7.034;2023-03-26T05:46:53;19.77;;;5.70;;
31596;SDS011;18201;50.978;7.034;2023-03-26T05:47:24;21.35;;;4.70;;
31596;SDS011;18201;50.978;7.034;2023-03-26T05:47:56;23.60;;;4.30;;
31596;SDS011;18201;50.978;7.034;2023-03-26T05:48:28;15.60;;;4.60;;
31596;SDS011;18201;50.978;7.034;2023-03-26T05:48:59;13.63;;;4.90;;
31596;SDS011;18201;50.978;7.034;2023-03-26T05:49:30;22.50;;;5.45;;
31596;SDS011;18201;50.978;7.034;2023-03-26T05:50:02;17.13;;;4.88;;
31596;SDS011;18201;50.978;7.034;2023-03-26T05:50:35;19.33;;;4.55;;
31596;SDS011;18201;50.978;7.034;2023-03-26T05:51:06;19.55;;;5.05;;
31596;SDS011;18201;50.978;7.034;2023-03-26T05:51:38;15.82;;;4.45;;